createdAt,value
2023-02-27T00:00:54.010Z,1.90
2023-02-27T00:03:20.679Z,1.93
2023-02-27T00:05:47.492Z,1.77
2023-02-27T00:08:14.324Z,2.03
2023-02-27T00:10:41.074Z,2.00
2023-02-27T00:13:07.799Z,1.80
2023-02-27T00:15:34.499Z,1.97
2023-02-27T00:18:01.483Z,1.90
2023-02-27T00:20:28.771Z,2.00
2023-02-27T00:22:55.491Z,2.10
2023-02-27T00:25:22.239Z,2.07
2023-02-27T00:27:49.224Z,1.70
2023-02-27T00:30:16.771Z,1.80
2023-02-27T00:32:44.307Z,1.97
2023-02-27T00:35:12.086Z,2.03
2023-02-27T00:37:40.107Z,1.83
2023-02-27T00:40:07.860Z,2.40
2023-02-27T00:42:35.455Z,2.10
2023-02-27T00:45:02.470Z,2.00
2023-02-27T00:47:29.075Z,1.80
2023-02-27T00:49:55.746Z,2.00
2023-02-27T00:52:22.369Z,2.00
2023-02-27T00:54:49.162Z,1.90
2023-02-27T00:57:16.212Z,2.13
2023-02-27T00:59:42.888Z,2.00
2023-02-27T01:02:09.649Z,2.20
2023-02-27T01:04:36.494Z,2.20
2023-02-27T01:07:03.471Z,2.53
2023-02-27T01:09:30.276Z,2.00
2023-02-27T01:11:57.776Z,2.33
2023-02-27T01:14:24.440Z,2.17
2023-02-27T01:16:51.114Z,2.47
2023-02-27T01:19:17.868Z,2.03
2023-02-27T01:21:44.813Z,2.30
2023-02-27T01:24:12.600Z,2.33
2023-02-27T01:26:39.489Z,2.10
2023-02-27T01:29:06.624Z,2.50
2023-02-27T01:31:33.920Z,2.23
2023-02-27T01:34:00.606Z,1.87
2023-02-27T01:36:27.187Z,2.03
2023-02-27T01:38:53.787Z,2.00
2023-02-27T01:41:21.253Z,2.00
2023-02-27T01:44:00.158Z,2.00
2023-02-27T01:46:28.153Z,1.80
2023-02-27T01:49:09.353Z,2.33
2023-02-27T01:51:45.608Z,2.20
2023-02-27T01:54:12.779Z,2.40
2023-02-27T01:56:39.588Z,2.00
2023-02-27T01:59:08.404Z,1.80
2023-02-27T02:01:35.691Z,1.70
2023-02-27T02:04:08.302Z,1.80
2023-02-27T02:06:38.126Z,2.33
2023-02-27T02:09:05.341Z,2.20
2023-02-27T02:11:31.956Z,2.20
2023-02-27T02:14:01.499Z,2.50
2023-02-27T02:16:40.203Z,1.90
2023-02-27T02:19:12.796Z,2.23
2023-02-27T02:22:00.677Z,2.10
2023-02-27T02:24:49.964Z,2.30
2023-02-27T02:27:38.387Z,2.13
2023-02-27T02:30:23.677Z,2.17
2023-02-27T02:33:09.040Z,2.03
2023-02-27T02:36:13.165Z,1.73
2023-02-27T02:38:51.927Z,2.67
2023-02-27T02:41:44.743Z,2.37
2023-02-27T02:44:36.204Z,2.30
2023-02-27T02:47:25.924Z,2.20
2023-02-27T02:50:11.942Z,2.30
2023-02-27T02:53:03.249Z,2.20
2023-02-27T02:55:43.667Z,2.10
2023-02-27T02:58:15.820Z,2.17
2023-02-27T03:00:47.917Z,2.50
2023-02-27T03:03:22.720Z,2.33
2023-02-27T03:05:59.236Z,2.50
2023-02-27T03:08:29.571Z,2.53
2023-02-27T03:10:58.823Z,2.10
2023-02-27T03:13:43.378Z,2.20
2023-02-27T03:16:30.112Z,2.17
2023-02-27T03:19:00.473Z,2.10
2023-02-27T03:21:31.259Z,2.30
2023-02-27T03:24:00.263Z,2.40
2023-02-27T03:26:33.124Z,2.80
2023-02-27T03:29:02.381Z,2.50
2023-02-27T03:31:40.301Z,2.20
2023-02-27T03:34:36.740Z,2.20
2023-02-27T03:37:37.563Z,2.40
2023-02-27T03:40:25.618Z,2.20
2023-02-27T03:43:19.907Z,2.47
2023-02-27T03:46:12.431Z,2.40
2023-02-27T03:48:44.634Z,2.40
2023-02-27T03:51:20.937Z,2.30
2023-02-27T03:54:01.879Z,2.30
2023-02-27T03:56:42.471Z,2.03
2023-02-27T03:59:09.152Z,2.10
2023-02-27T04:01:36.150Z,2.57
2023-02-27T04:04:07.749Z,2.07
2023-02-27T04:06:55.180Z,2.10
2023-02-27T04:09:25.319Z,2.43
2023-02-27T04:12:02.310Z,2.40
2023-02-27T04:14:43.684Z,2.20
2023-02-27T04:17:24.358Z,2.50
2023-02-27T04:20:16.512Z,2.30
2023-02-27T04:22:52.987Z,2.57
2023-02-27T04:25:28.706Z,2.40
2023-02-27T04:28:10.498Z,2.50
2023-02-27T04:30:43.247Z,2.30
2023-02-27T04:33:14.869Z,2.43
2023-02-27T04:35:51.254Z,2.87
2023-02-27T04:38:36.651Z,2.47
2023-02-27T04:41:27.519Z,2.53
2023-02-27T04:43:55.746Z,2.40
2023-02-27T04:46:24.859Z,2.40
2023-02-27T04:48:56.795Z,2.53
2023-02-27T04:51:28.210Z,2.20
2023-02-27T04:53:59.134Z,2.50
2023-02-27T04:56:31.911Z,2.50
2023-02-27T04:59:23.139Z,2.40
2023-02-27T05:02:00.220Z,2.20
2023-02-27T05:04:28.470Z,2.20
2023-02-27T05:06:55.980Z,2.70
2023-02-27T05:09:35.719Z,2.53
2023-02-27T05:12:12.820Z,2.60
2023-02-27T05:14:45.889Z,2.80
2023-02-27T05:17:16.294Z,2.80
2023-02-27T05:19:44.000Z,3.03
2023-02-27T05:22:35.462Z,2.90
2023-02-27T05:25:15.569Z,2.70
2023-02-27T05:27:53.672Z,2.60
2023-02-27T05:30:27.319Z,2.50
2023-02-27T05:33:07.278Z,2.33
2023-02-27T05:35:49.112Z,2.70
2023-02-27T05:38:30.114Z,2.50
2023-02-27T05:41:24.253Z,2.47
2023-02-27T05:44:05.055Z,2.50
2023-02-27T05:46:35.641Z,2.60
2023-02-27T05:49:10.738Z,3.10
2023-02-27T05:51:38.783Z,3.03
2023-02-27T05:54:39.292Z,2.60
2023-02-27T05:57:10.979Z,2.73
2023-02-27T05:59:56.726Z,2.70
2023-02-27T06:02:23.889Z,2.97
2023-02-27T06:04:50.569Z,2.70
2023-02-27T06:07:17.317Z,2.70
2023-02-27T06:09:44.561Z,2.90
2023-02-27T06:12:11.222Z,3.07
2023-02-27T06:14:37.773Z,2.60
2023-02-27T06:17:05.109Z,2.87
2023-02-27T06:19:31.696Z,3.03
2023-02-27T06:22:04.462Z,2.97
2023-02-27T06:24:31.095Z,3.07
2023-02-27T06:26:57.785Z,3.33
2023-02-27T06:29:24.520Z,3.07
2023-02-27T06:31:51.219Z,2.90
2023-02-27T06:34:17.949Z,3.00
2023-02-27T06:36:44.600Z,2.73
2023-02-27T06:39:12.096Z,3.00
2023-02-27T06:41:38.780Z,3.50
2023-02-27T06:44:11.518Z,3.30
2023-02-27T06:46:47.184Z,3.40
2023-02-27T06:49:13.894Z,3.33
2023-02-27T06:51:40.599Z,3.50
2023-02-27T06:54:08.188Z,3.10
2023-02-27T06:56:34.810Z,3.30
2023-02-27T06:59:01.578Z,3.23
2023-02-27T07:01:34.315Z,3.27
2023-02-27T07:04:01.312Z,3.20
2023-02-27T07:07:32.681Z,3.00
2023-02-27T07:09:19.622Z,3.47
2023-02-27T07:11:46.312Z,3.30
2023-02-27T07:14:15.245Z,3.40
2023-02-27T07:16:41.826Z,3.93
2023-02-27T07:19:08.869Z,3.43
2023-02-27T07:21:35.643Z,3.33
2023-02-27T07:24:04.888Z,3.27
2023-02-27T07:26:31.483Z,3.70
2023-02-27T07:28:58.132Z,3.40
2023-02-27T07:31:24.879Z,3.47
2023-02-27T07:33:51.701Z,3.50
2023-02-27T07:36:18.395Z,3.30
2023-02-27T07:38:44.995Z,3.50
2023-02-27T07:41:21.222Z,3.07
2023-02-27T07:43:56.106Z,3.20
2023-02-27T07:46:24.164Z,3.63
2023-02-27T07:48:50.802Z,3.33
2023-02-27T07:51:17.442Z,6.50
2023-02-27T07:53:44.061Z,4.07
2023-02-27T07:56:10.966Z,3.60
2023-02-27T07:58:37.643Z,3.60
2023-02-27T08:01:04.344Z,3.60
2023-02-27T08:03:30.983Z,3.70
2023-02-27T08:05:57.637Z,3.67
2023-02-27T08:08:24.764Z,3.93
2023-02-27T08:10:51.447Z,3.83
2023-02-27T08:13:25.200Z,4.20
2023-02-27T08:16:02.869Z,3.63
2023-02-27T08:18:30.370Z,3.70
2023-02-27T08:20:57.524Z,4.07
2023-02-27T08:23:24.146Z,3.67
2023-02-27T08:25:51.131Z,3.70
2023-02-27T08:28:18.426Z,3.83
2023-02-27T08:30:45.126Z,4.23
2023-02-27T08:33:11.815Z,4.00
2023-02-27T08:35:38.505Z,4.10
2023-02-27T08:38:05.689Z,3.90
2023-02-27T08:40:32.392Z,3.80
2023-02-27T08:42:59.046Z,3.97
2023-02-27T08:45:25.788Z,3.80
2023-02-27T08:47:52.489Z,3.80
2023-02-27T08:50:19.473Z,4.37
2023-02-27T08:52:46.166Z,3.90
2023-02-27T08:55:12.820Z,3.70
2023-02-27T08:57:39.455Z,4.00
2023-02-27T09:00:07.619Z,4.10
2023-02-27T09:02:35.008Z,4.10
2023-02-27T09:05:02.003Z,4.10
2023-02-27T09:07:35.241Z,3.73
2023-02-27T09:10:01.949Z,3.80
2023-02-27T09:12:28.674Z,3.77
2023-02-27T09:14:55.382Z,3.70
2023-02-27T09:17:22.144Z,3.33
2023-02-27T09:19:49.422Z,3.13
2023-02-27T09:22:16.048Z,3.37
2023-02-27T09:24:42.919Z,3.70
2023-02-27T09:27:09.552Z,3.37
2023-02-27T09:29:36.230Z,2.80
2023-02-27T09:32:02.937Z,3.00
2023-02-27T09:34:29.821Z,2.87
2023-02-27T09:37:00.192Z,3.00
2023-02-27T09:39:28.011Z,2.47
2023-02-27T09:42:05.920Z,2.27
2023-02-27T09:44:47.320Z,2.30
2023-02-27T09:47:38.499Z,2.43
2023-02-27T09:50:06.573Z,2.20
2023-02-27T09:52:35.912Z,2.33
2023-02-27T09:55:05.022Z,2.30
2023-02-27T09:57:41.799Z,1.90
2023-02-27T10:00:27.958Z,1.90
2023-02-27T10:03:17.046Z,2.43
2023-02-27T10:06:15.061Z,2.10
2023-02-27T10:09:12.682Z,1.90
2023-02-27T10:11:57.756Z,2.37
2023-02-27T10:14:48.197Z,1.87
2023-02-27T10:17:31.030Z,1.93
2023-02-27T10:19:59.056Z,2.17
2023-02-27T10:22:31.151Z,1.90
2023-02-27T10:25:08.950Z,1.50
2023-02-27T10:27:40.028Z,1.70
2023-02-27T10:30:28.352Z,1.47
2023-02-27T10:33:07.527Z,1.50
2023-02-27T10:35:36.508Z,1.50
2023-02-27T10:38:15.728Z,1.60
2023-02-27T10:40:43.261Z,1.83
2023-02-27T10:43:14.634Z,1.97
2023-02-27T10:45:42.432Z,2.13
2023-02-27T10:48:09.173Z,1.43
2023-02-27T10:50:39.648Z,2.07
2023-02-27T10:53:23.714Z,1.80
2023-02-27T10:56:05.153Z,1.63
2023-02-27T10:58:35.320Z,1.70
2023-02-27T11:01:10.028Z,1.80
2023-02-27T11:03:41.750Z,1.90
2023-02-27T11:06:26.803Z,2.20
2023-02-27T11:09:22.906Z,1.60
2023-02-27T11:11:50.467Z,1.87
2023-02-27T11:14:26.561Z,1.97
2023-02-27T11:16:57.729Z,2.20
2023-02-27T11:19:44.620Z,1.70
2023-02-27T11:22:20.476Z,1.63
2023-02-27T11:24:48.026Z,1.70
2023-02-27T11:27:29.462Z,2.00
2023-02-27T11:30:00.101Z,1.67
2023-02-27T11:32:36.382Z,1.50
2023-02-27T11:35:04.619Z,1.80
2023-02-27T11:37:39.691Z,1.80
2023-02-27T11:40:09.557Z,1.50
2023-02-27T11:42:38.074Z,2.17
2023-02-27T11:46:15.414Z,1.80
2023-02-27T11:48:16.454Z,1.93
2023-02-27T11:50:53.990Z,1.90
2023-02-27T11:53:54.885Z,1.90
2023-02-27T11:56:26.708Z,1.60
2023-02-27T11:59:00.542Z,1.50
2023-02-27T12:01:37.445Z,1.90
2023-02-27T12:04:14.907Z,2.20
2023-02-27T12:06:51.270Z,1.90
2023-02-27T12:09:33.147Z,1.80
2023-02-27T12:12:02.084Z,1.60
2023-02-27T12:15:10.338Z,1.90
2023-02-27T12:18:23.550Z,2.00
2023-02-27T12:20:59.222Z,2.00
2023-02-27T12:23:36.901Z,2.27
2023-02-27T12:26:27.627Z,1.80
2023-02-27T12:29:04.657Z,1.93
2023-02-27T12:31:37.494Z,1.60
2023-02-27T12:34:22.804Z,1.77
2023-02-27T12:36:49.712Z,1.83
2023-02-27T12:39:21.359Z,1.80
2023-02-27T12:41:48.138Z,2.03
2023-02-27T12:44:33.222Z,1.80
2023-02-27T12:47:17.887Z,1.67
2023-02-27T12:50:01.617Z,1.87
2023-02-27T12:52:43.388Z,1.40
2023-02-27T12:55:23.299Z,1.90
2023-02-27T12:58:01.132Z,1.90
2023-02-27T13:00:42.653Z,2.10
2023-02-27T13:03:49.039Z,2.00
2023-02-27T13:06:25.110Z,2.20
2023-02-27T13:09:08.819Z,2.00
2023-02-27T13:11:59.353Z,1.50
2023-02-27T13:14:26.138Z,1.70
2023-02-27T13:17:31.343Z,1.80
2023-02-27T13:20:04.986Z,1.70
2023-02-27T13:22:51.264Z,1.90
2023-02-27T13:25:18.888Z,1.80
2023-02-27T13:27:50.534Z,2.90
2023-02-27T13:30:24.140Z,1.83
2023-02-27T13:33:15.650Z,1.80
2023-02-27T13:35:57.812Z,1.77
2023-02-27T13:38:48.618Z,1.83
2023-02-27T13:41:21.426Z,2.00
2023-02-27T13:43:52.479Z,1.90
2023-02-27T13:46:23.006Z,1.53
2023-02-27T13:49:26.944Z,1.60
2023-02-27T13:51:56.848Z,1.67
2023-02-27T13:54:27.220Z,1.57
2023-02-27T13:56:59.820Z,1.80
2023-02-27T13:59:29.026Z,2.00
2023-02-27T14:02:11.203Z,1.67
2023-02-27T14:04:49.799Z,1.73
2023-02-27T14:07:21.340Z,1.60
2023-02-27T14:09:50.642Z,1.67
2023-02-27T14:12:45.328Z,1.53
2023-02-27T14:15:25.010Z,1.50
2023-02-27T14:18:09.238Z,1.50
2023-02-27T14:20:41.197Z,1.57
2023-02-27T14:23:26.987Z,1.60
2023-02-27T14:25:55.265Z,1.50
2023-02-27T14:28:27.674Z,1.90
2023-02-27T14:30:59.214Z,2.00
2023-02-27T14:33:45.700Z,1.60
2023-02-27T14:36:29.938Z,2.03
2023-02-27T14:38:58.424Z,1.70
2023-02-27T14:41:34.305Z,1.50
2023-02-27T14:44:01.050Z,1.70
2023-02-27T14:46:40.336Z,1.77
2023-02-27T14:49:20.235Z,1.63
2023-02-27T14:51:47.183Z,2.00
2023-02-27T14:54:14.924Z,1.70
2023-02-27T14:56:42.704Z,1.90
2023-02-27T14:59:26.178Z,2.03
2023-02-27T15:01:55.049Z,1.87
2023-02-27T15:04:23.939Z,1.80
2023-02-27T15:06:52.272Z,1.90
2023-02-27T15:09:23.832Z,2.10
2023-02-27T15:12:03.098Z,1.80
2023-02-27T15:14:37.033Z,2.17
2023-02-27T15:17:04.970Z,2.00
2023-02-27T15:19:32.168Z,1.97
2023-02-27T15:22:02.883Z,2.10
2023-02-27T15:24:44.083Z,1.93
2023-02-27T15:27:22.865Z,2.20
2023-02-27T15:30:00.440Z,2.20
2023-02-27T15:32:31.743Z,2.10
2023-02-27T15:35:01.215Z,2.40
2023-02-27T15:37:30.483Z,2.40
2023-02-27T15:39:58.742Z,2.03
2023-02-27T15:42:28.744Z,2.10
2023-02-27T15:44:55.886Z,2.30
2023-02-27T15:47:30.489Z,2.20
2023-02-27T15:50:07.268Z,2.00
2023-02-27T15:52:41.674Z,2.13
2023-02-27T15:55:16.690Z,1.80
2023-02-27T15:57:56.554Z,1.93
2023-02-27T16:00:29.006Z,1.80
2023-02-27T16:02:57.710Z,2.00
2023-02-27T16:05:27.729Z,2.30
2023-02-27T16:07:54.892Z,2.03
2023-02-27T16:10:24.479Z,2.00
2023-02-27T16:12:51.197Z,2.10
2023-02-27T16:15:21.186Z,2.10
2023-02-27T16:18:08.072Z,1.93
2023-02-27T16:20:38.153Z,2.03
2023-02-27T16:23:16.158Z,2.20
2023-02-27T16:25:58.800Z,2.33
2023-02-27T16:28:32.913Z,2.40
2023-02-27T16:30:59.916Z,2.23
2023-02-27T16:33:28.075Z,2.10
2023-02-27T16:36:11.051Z,2.10
2023-02-27T16:38:37.790Z,2.50
2023-02-27T16:41:04.790Z,1.93
2023-02-27T16:43:33.530Z,1.70
2023-02-27T16:46:00.371Z,2.17
2023-02-27T16:48:27.136Z,1.90
2023-02-27T16:50:53.899Z,2.00
2023-02-27T16:53:20.619Z,1.63
2023-02-27T16:55:47.485Z,1.60
2023-02-27T16:58:15.914Z,1.90
2023-02-27T17:00:42.944Z,2.10
2023-02-27T17:03:09.826Z,1.60
2023-02-27T17:05:36.599Z,1.67
2023-02-27T17:08:03.237Z,2.10
2023-02-27T17:10:30.142Z,2.10
2023-02-27T17:12:56.768Z,1.80
2023-02-27T17:15:23.524Z,1.80
2023-02-27T17:17:50.275Z,1.87
2023-02-27T17:20:17.001Z,1.90
2023-02-27T17:22:44.658Z,1.83
2023-02-27T17:25:12.159Z,1.90
2023-02-27T17:27:38.803Z,1.77
2023-02-27T17:30:06.657Z,2.20
2023-02-27T17:32:34.668Z,2.30
2023-02-27T17:35:01.276Z,2.30
2023-02-27T17:37:28.001Z,2.00
2023-02-27T17:39:55.450Z,2.27
2023-02-27T17:42:25.918Z,2.90
2023-02-27T17:44:52.774Z,2.60
2023-02-27T17:47:19.706Z,3.00
2023-02-27T17:49:46.438Z,2.70
2023-02-27T17:52:13.210Z,3.07
2023-02-27T17:54:40.248Z,2.63
2023-02-27T17:57:07.053Z,2.70
2023-02-27T17:59:33.825Z,2.20
2023-02-27T18:02:00.685Z,2.17
2023-02-27T18:04:27.393Z,2.40
2023-02-27T18:06:54.523Z,2.40
2023-02-27T18:09:21.220Z,2.40
2023-02-27T18:11:48.027Z,2.50
2023-02-27T18:14:14.644Z,2.43
2023-02-27T18:16:42.632Z,2.67
2023-02-27T18:19:09.280Z,2.57
2023-02-27T18:21:36.121Z,2.40
2023-02-27T18:24:03.120Z,2.50
2023-02-27T18:26:31.421Z,2.17
2023-02-27T18:29:04.476Z,2.33
2023-02-27T18:31:33.988Z,2.60
2023-02-27T18:34:01.273Z,2.73
2023-02-27T18:36:31.047Z,1.93
2023-02-27T18:38:59.036Z,2.40
2023-02-27T18:41:25.901Z,2.67
2023-02-27T18:43:52.632Z,2.77
2023-02-27T18:46:20.425Z,2.63
2023-02-27T18:48:48.060Z,2.90
2023-02-27T18:51:15.599Z,2.73
2023-02-27T18:53:44.684Z,2.90
2023-02-27T18:56:31.118Z,2.73
2023-02-27T18:59:02.125Z,2.43
2023-02-27T19:01:30.874Z,2.97
2023-02-27T19:04:03.804Z,3.27
2023-02-27T19:06:32.605Z,2.80
2023-02-27T19:08:59.529Z,2.87
2023-02-27T19:11:37.486Z,3.03
2023-02-27T19:14:06.466Z,2.97
2023-02-27T19:16:33.781Z,3.30
2023-02-27T19:19:09.895Z,3.33
2023-02-27T19:21:36.630Z,3.90
2023-02-27T19:24:03.404Z,3.20
2023-02-27T19:26:32.692Z,3.30
2023-02-27T19:28:59.372Z,3.23
2023-02-27T19:31:26.112Z,3.33
2023-02-27T19:33:52.816Z,3.40
2023-02-27T19:36:23.923Z,3.07
2023-02-27T19:38:50.941Z,3.00
2023-02-27T19:41:18.476Z,3.20
2023-02-27T19:43:45.885Z,2.80
2023-02-27T19:46:15.759Z,3.17
2023-02-27T19:48:43.273Z,3.33
2023-02-27T19:51:12.029Z,3.30
2023-02-27T19:53:40.456Z,4.00
2023-02-27T19:56:12.887Z,3.87
2023-02-27T19:58:39.842Z,3.50
2023-02-27T20:01:07.050Z,3.97
2023-02-27T20:03:34.730Z,3.90
2023-02-27T20:06:05.959Z,4.20
2023-02-27T20:08:33.731Z,3.67
2023-02-27T20:11:04.357Z,3.63
2023-02-27T20:13:31.494Z,3.40
2023-02-27T20:16:03.374Z,3.90
2023-02-27T20:18:30.730Z,3.70
2023-02-27T20:21:08.604Z,3.73
2023-02-27T20:23:38.588Z,3.90
2023-02-27T20:26:32.335Z,3.50
2023-02-27T20:29:00.969Z,3.40
2023-02-27T20:31:32.498Z,3.50
2023-02-27T20:34:01.339Z,3.60
2023-02-27T20:36:28.551Z,3.63
2023-02-27T20:38:55.752Z,3.47
2023-02-27T20:41:23.316Z,3.37
2023-02-27T20:43:50.284Z,3.30
2023-02-27T20:46:19.480Z,3.27
2023-02-27T20:48:46.562Z,3.57
2023-02-27T20:51:17.042Z,3.43
2023-02-27T20:53:47.004Z,3.37
2023-02-27T20:56:14.288Z,3.10
2023-02-27T20:58:43.958Z,4.33
2023-02-27T21:01:11.982Z,3.47
2023-02-27T21:03:40.513Z,3.50
2023-02-27T21:06:09.001Z,3.07
2023-02-27T21:08:37.041Z,3.40
2023-02-27T21:11:17.463Z,3.33
2023-02-27T21:13:46.083Z,3.50
2023-02-27T21:16:14.963Z,3.40
2023-02-27T21:18:42.286Z,3.57
2023-02-27T21:21:11.540Z,3.60
2023-02-27T21:23:41.496Z,3.50
2023-02-27T21:26:19.201Z,3.20
2023-02-27T21:28:53.580Z,3.63
2023-02-27T21:31:21.658Z,3.67
2023-02-27T21:33:48.945Z,3.40
2023-02-27T21:36:15.924Z,3.60
2023-02-27T21:38:42.956Z,3.40
2023-02-27T21:41:12.338Z,3.87
2023-02-27T21:43:42.373Z,3.50
2023-02-27T21:46:13.053Z,3.57
2023-02-27T21:48:39.948Z,3.10
2023-02-27T21:51:07.267Z,3.47
2023-02-27T21:53:34.553Z,3.50
2023-02-27T21:56:09.574Z,3.37
2023-02-27T21:58:36.885Z,3.73
2023-02-27T22:01:15.273Z,3.40
2023-02-27T22:03:43.647Z,3.90
2023-02-27T22:06:11.374Z,3.87
2023-02-27T22:08:38.766Z,3.63
2023-02-27T22:11:05.858Z,3.47
2023-02-27T22:13:33.280Z,3.40
2023-02-27T22:16:08.304Z,4.40
2023-02-27T22:18:35.511Z,3.50
2023-02-27T22:21:02.997Z,3.40
2023-02-27T22:23:29.818Z,3.83
2023-02-27T22:26:04.633Z,4.00
2023-02-27T22:28:32.790Z,3.70
2023-02-27T22:31:14.456Z,3.80
2023-02-27T22:33:42.339Z,4.03
2023-02-27T22:36:20.350Z,3.90
2023-02-27T22:38:48.207Z,4.10
2023-02-27T22:41:30.795Z,3.80
2023-02-27T22:43:58.746Z,3.80
2023-02-27T22:46:26.784Z,4.17
2023-02-27T22:48:55.174Z,3.50
2023-02-27T22:51:24.644Z,4.30
2023-02-27T22:53:51.764Z,3.60
2023-02-27T22:56:18.535Z,3.77
2023-02-27T22:58:46.145Z,3.80
2023-02-27T23:01:20.693Z,3.60
2023-02-27T23:03:49.998Z,4.00
2023-02-27T23:06:28.427Z,3.87
2023-02-27T23:08:55.187Z,3.97
2023-02-27T23:11:21.851Z,4.00
2023-02-27T23:13:48.843Z,3.90
2023-02-27T23:16:16.097Z,3.70
2023-02-27T23:18:47.585Z,4.07
2023-02-27T23:21:16.237Z,4.10
2023-02-27T23:23:43.276Z,3.77
2023-02-27T23:26:10.383Z,3.90
2023-02-27T23:28:37.355Z,3.90
2023-02-27T23:31:05.716Z,3.80
2023-02-27T23:33:33.001Z,4.00
2023-02-27T23:35:59.973Z,3.90
2023-02-27T23:38:27.043Z,4.23
2023-02-27T23:40:54.297Z,3.90
2023-02-27T23:43:21.771Z,3.87
2023-02-27T23:45:48.645Z,3.70
2023-02-27T23:48:15.462Z,4.00
2023-02-27T23:50:44.010Z,3.83
2023-02-27T23:53:13.452Z,4.07
2023-02-27T23:55:41.090Z,4.27
2023-02-27T23:58:09.421Z,3.83
